Aviation Digital Data Service (ADDS)

Output produced by METARs form (0328 UTC 25 October 2014)
found at http://aviationweather.gov/adds/metars/
 
KISP 250239Z 2503/2524 31005KT P6SM FEW045 SCT250 
     FM250600 32005KT P6SM SCT250 
     FM251500 30010KT P6SM SKC 
     FM251900 25010KT P6SM SKC 
     FM252200 25007KT P6SM SCT045